Leonardo S.ii — IRSB — position and weather

sailwx.info

Track history (hours):
 
Tides and Currents Weather Stations Pressure Air Temp Water Temp Dewpoint Dewpoint Depression Visibility Wind Speed Wind Dir Waves Ship Positions

Leonardo S.ii

Last reported at 2018-Apr-19 05:48 UTC. Time now 2018-Apr-19 19:35 UTC.
Position N 45°11' E 012°49'.

Length 25 m; draft 3.8 m.

Type: Fishing. MMSI: 247050520.

Date/timePositionNaut miles runAvg speedWind from/ knotsBaromVisibWave heightAir tempDewpointWater temp
2018-Apr-19 05:48N 45°11' E 012°49'  
2018-Apr-16 13:14N 45°15' E 012°29'  
2018-Apr-13 07:56N 45°04' E 012°35'2 4.8
2018-Apr-13 07:28N 45°03' E 012°38'1 2.6
2018-Apr-13 07:00N 45°04' E 012°37'2 3.2
2018-Apr-13 06:27N 45°04' E 012°35'1 3.0
2018-Apr-13 06:00N 45°05' E 012°36'2 3.1
2018-Apr-13 05:30N 45°06' E 012°37'3 5.7
2018-Apr-13 05:00N 45°09' E 012°37'2 4.8
2018-Apr-13 04:30N 45°10' E 012°34'5 9.1
2018-Apr-13 04:00N 45°12' E 012°28'5 9.3
2018-Apr-13 03:30N 45°13' E 012°22'3 4.5
2018-Apr-13 02:47N 45°13' E 012°17'  
Track history (hours):
 
Tides and Currents Weather Stations Pressure Air Temp Water Temp Dewpoint Dewpoint Depression Visibility Wind Speed Wind Dir Waves Ship Positions

Leonardo S.ii

Last reported at 2018-Apr-19 05:48 UTC. Time now 2018-Apr-19 19:35 UTC.
Position N 45°11' E 012°49'.

Length 25 m; draft 3.8 m.

Type: Fishing. MMSI: 247050520.

Date/timePositionNaut miles runAvg speedWind from/ knotsBaromVisibWave heightAir tempDewpointWater temp
2018-Apr-19 05:48N 45°11' E 012°49'  
2018-Apr-16 13:14N 45°15' E 012°29'  
2018-Apr-13 07:56N 45°04' E 012°35'2 4.8
2018-Apr-13 07:28N 45°03' E 012°38'1 2.6
2018-Apr-13 07:00N 45°04' E 012°37'2 3.2
2018-Apr-13 06:27N 45°04' E 012°35'1 3.0
2018-Apr-13 06:00N 45°05' E 012°36'2 3.1
2018-Apr-13 05:30N 45°06' E 012°37'3 5.7
2018-Apr-13 05:00N 45°09' E 012°37'2 4.8
2018-Apr-13 04:30N 45°10' E 012°34'5 9.1
2018-Apr-13 04:00N 45°12' E 012°28'5 9.3
2018-Apr-13 03:30N 45°13' E 012°22'3 4.5
2018-Apr-13 02:47N 45°13' E 012°17'  

Dump ship's entire track history